sensor_id;sensor_type;location;lat;lon;timestamp;P1;durP1;ratioP1;P2;durP2;ratioP2
65996;SDS011;52765;52.258;21.052;2023-02-04T00:01:34;12.73;;;6.57;;
65996;SDS011;52765;52.258;21.052;2023-02-04T00:04:00;15.07;;;7.05;;
65996;SDS011;52765;52.258;21.052;2023-02-04T00:06:26;14.45;;;7.30;;
65996;SDS011;52765;52.258;21.052;2023-02-04T00:08:51;14.90;;;7.78;;
65996;SDS011;52765;52.258;21.052;2023-02-04T00:11:17;13.90;;;7.47;;
65996;SDS011;52765;52.258;21.052;2023-02-04T00:13:45;14.77;;;8.30;;
65996;SDS011;52765;52.258;21.052;2023-02-04T00:16:10;19.80;;;7.97;;
65996;SDS011;52765;52.258;21.052;2023-02-04T00:18:36;17.33;;;8.00;;
65996;SDS011;52765;52.258;21.052;2023-02-04T00:21:01;15.20;;;7.82;;
65996;SDS011;52765;52.258;21.052;2023-02-04T00:23:27;12.10;;;6.97;;
65996;SDS011;52765;52.258;21.052;2023-02-04T00:25:52;14.45;;;7.80;;
65996;SDS011;52765;52.258;21.052;2023-02-04T00:28:17;14.85;;;8.77;;
65996;SDS011;52765;52.258;21.052;2023-02-04T00:30:43;20.75;;;8.25;;
65996;SDS011;52765;52.258;21.052;2023-02-04T00:33:09;14.75;;;7.53;;
65996;SDS011;52765;52.258;21.052;2023-02-04T00:35:34;14.10;;;7.85;;
65996;SDS011;52765;52.258;21.052;2023-02-04T00:38:01;12.30;;;7.13;;
65996;SDS011;52765;52.258;21.052;2023-02-04T00:40:27;13.48;;;6.82;;
65996;SDS011;52765;52.258;21.052;2023-02-04T00:42:53;11.93;;;7.03;;
65996;SDS011;52765;52.258;21.052;2023-02-04T00:45:18;13.48;;;6.68;;
65996;SDS011;52765;52.258;21.052;2023-02-04T00:47:44;11.32;;;6.50;;
65996;SDS011;52765;52.258;21.052;2023-02-04T00:50:09;12.05;;;6.57;;
65996;SDS011;52765;52.258;21.052;2023-02-04T00:52:35;13.10;;;6.50;;
65996;SDS011;52765;52.258;21.052;2023-02-04T00:55:00;12.02;;;5.95;;
65996;SDS011;52765;52.258;21.052;2023-02-04T00:57:26;14.35;;;6.05;;
65996;SDS011;52765;52.258;21.052;2023-02-04T00:59:51;13.80;;;7.00;;
65996;SDS011;52765;52.258;21.052;2023-02-04T01:02:17;10.52;;;6.00;;
65996;SDS011;52765;52.258;21.052;2023-02-04T01:04:42;10.60;;;6.18;;
65996;SDS011;52765;52.258;21.052;2023-02-04T01:07:08;14.98;;;6.57;;
65996;SDS011;52765;52.258;21.052;2023-02-04T01:09:33;13.88;;;6.88;;
65996;SDS011;52765;52.258;21.052;2023-02-04T01:11:58;13.60;;;6.45;;
65996;SDS011;52765;52.258;21.052;2023-02-04T01:14:24;13.07;;;6.60;;
65996;SDS011;52765;52.258;21.052;2023-02-04T01:16:49;10.48;;;6.60;;
65996;SDS011;52765;52.258;21.052;2023-02-04T01:19:15;12.98;;;6.13;;
65996;SDS011;52765;52.258;21.052;2023-02-04T01:21:40;15.88;;;6.35;;
65996;SDS011;52765;52.258;21.052;2023-02-04T01:24:06;11.75;;;5.82;;
65996;SDS011;52765;52.258;21.052;2023-02-04T01:26:31;10.15;;;6.13;;
65996;SDS011;52765;52.258;21.052;2023-02-04T01:28:57;11.90;;;6.00;;
65996;SDS011;52765;52.258;21.052;2023-02-04T01:31:22;12.48;;;6.05;;
65996;SDS011;52765;52.258;21.052;2023-02-04T01:33:48;11.68;;;6.15;;
65996;SDS011;52765;52.258;21.052;2023-02-04T01:36:13;11.73;;;6.55;;
65996;SDS011;52765;52.258;21.052;2023-02-04T01:38:39;11.50;;;5.93;;
65996;SDS011;52765;52.258;21.052;2023-02-04T01:41:04;10.30;;;5.75;;
65996;SDS011;52765;52.258;21.052;2023-02-04T01:43:30;10.65;;;6.70;;
65996;SDS011;52765;52.258;21.052;2023-02-04T01:45:56;12.05;;;6.35;;
65996;SDS011;52765;52.258;21.052;2023-02-04T01:48:22;11.50;;;6.10;;
65996;SDS011;52765;52.258;21.052;2023-02-04T01:50:49;11.95;;;6.53;;
65996;SDS011;52765;52.258;21.052;2023-02-04T01:53:20;10.80;;;6.07;;
65996;SDS011;52765;52.258;21.052;2023-02-04T01:55:48;10.75;;;6.03;;
65996;SDS011;52765;52.258;21.052;2023-02-04T01:58:13;16.27;;;6.90;;
65996;SDS011;52765;52.258;21.052;2023-02-04T02:00:40;8.95;;;5.45;;
65996;SDS011;52765;52.258;21.052;2023-02-04T02:03:05;10.35;;;5.75;;
65996;SDS011;52765;52.258;21.052;2023-02-04T02:05:36;7.63;;;5.07;;
65996;SDS011;52765;52.258;21.052;2023-02-04T02:08:05;13.13;;;5.00;;
65996;SDS011;52765;52.258;21.052;2023-02-04T02:10:32;9.27;;;5.45;;
65996;SDS011;52765;52.258;21.052;2023-02-04T02:12:59;9.15;;;5.30;;
65996;SDS011;52765;52.258;21.052;2023-02-04T02:15:25;10.93;;;5.18;;
65996;SDS011;52765;52.258;21.052;2023-02-04T02:17:51;11.43;;;5.50;;
65996;SDS011;52765;52.258;21.052;2023-02-04T02:20:19;10.13;;;4.90;;
65996;SDS011;52765;52.258;21.052;2023-02-04T02:25:12;9.90;;;4.78;;
65996;SDS011;52765;52.258;21.052;2023-02-04T02:27:39;7.50;;;4.63;;
65996;SDS011;52765;52.258;21.052;2023-02-04T02:30:05;10.65;;;4.85;;
65996;SDS011;52765;52.258;21.052;2023-02-04T02:32:33;8.85;;;5.20;;
65996;SDS011;52765;52.258;21.052;2023-02-04T02:34:59;9.18;;;4.78;;
65996;SDS011;52765;52.258;21.052;2023-02-04T02:37:25;8.18;;;4.38;;
65996;SDS011;52765;52.258;21.052;2023-02-04T02:39:51;9.07;;;4.18;;
65996;SDS011;52765;52.258;21.052;2023-02-04T02:42:17;8.10;;;4.60;;
65996;SDS011;52765;52.258;21.052;2023-02-04T02:44:43;10.27;;;5.10;;
65996;SDS011;52765;52.258;21.052;2023-02-04T02:47:12;10.50;;;5.05;;
65996;SDS011;52765;52.258;21.052;2023-02-04T02:49:43;9.32;;;5.18;;
65996;SDS011;52765;52.258;21.052;2023-02-04T02:52:12;11.40;;;4.63;;
65996;SDS011;52765;52.258;21.052;2023-02-04T02:54:37;12.20;;;5.00;;
65996;SDS011;52765;52.258;21.052;2023-02-04T02:57:09;8.10;;;4.03;;
65996;SDS011;52765;52.258;21.052;2023-02-04T03:02:04;12.27;;;4.20;;
65996;SDS011;52765;52.258;21.052;2023-02-04T03:04:30;9.38;;;4.10;;
65996;SDS011;52765;52.258;21.052;2023-02-04T03:07:01;8.68;;;4.47;;
65996;SDS011;52765;52.258;21.052;2023-02-04T03:09:27;7.80;;;4.45;;
65996;SDS011;52765;52.258;21.052;2023-02-04T03:11:53;9.18;;;4.43;;
65996;SDS011;52765;52.258;21.052;2023-02-04T03:14:19;9.55;;;4.63;;
65996;SDS011;52765;52.258;21.052;2023-02-04T03:16:46;10.80;;;5.30;;
65996;SDS011;52765;52.258;21.052;2023-02-04T03:19:12;10.95;;;5.45;;
65996;SDS011;52765;52.258;21.052;2023-02-04T03:21:38;9.73;;;4.80;;
65996;SDS011;52765;52.258;21.052;2023-02-04T03:24:04;10.02;;;4.50;;
65996;SDS011;52765;52.258;21.052;2023-02-04T03:26:30;7.95;;;4.88;;
65996;SDS011;52765;52.258;21.052;2023-02-04T03:28:56;8.27;;;4.68;;
65996;SDS011;52765;52.258;21.052;2023-02-04T03:31:23;8.40;;;4.38;;
65996;SDS011;52765;52.258;21.052;2023-02-04T03:33:48;13.07;;;4.88;;
65996;SDS011;52765;52.258;21.052;2023-02-04T03:36:13;11.43;;;5.22;;
65996;SDS011;52765;52.258;21.052;2023-02-04T03:38:39;10.68;;;4.85;;
65996;SDS011;52765;52.258;21.052;2023-02-04T03:41:05;11.55;;;4.82;;
65996;SDS011;52765;52.258;21.052;2023-02-04T03:43:31;11.77;;;4.85;;
65996;SDS011;52765;52.258;21.052;2023-02-04T03:45:57;11.27;;;5.13;;
65996;SDS011;52765;52.258;21.052;2023-02-04T03:48:22;8.35;;;4.28;;
65996;SDS011;52765;52.258;21.052;2023-02-04T03:50:48;8.43;;;4.47;;
65996;SDS011;52765;52.258;21.052;2023-02-04T03:53:13;7.13;;;4.60;;
65996;SDS011;52765;52.258;21.052;2023-02-04T03:55:38;6.43;;;3.97;;
65996;SDS011;52765;52.258;21.052;2023-02-04T03:58:04;7.60;;;4.30;;
65996;SDS011;52765;52.258;21.052;2023-02-04T04:00:29;7.75;;;3.78;;
65996;SDS011;52765;52.258;21.052;2023-02-04T04:02:56;7.00;;;3.58;;
65996;SDS011;52765;52.258;21.052;2023-02-04T04:05:22;7.25;;;3.80;;
65996;SDS011;52765;52.258;21.052;2023-02-04T04:07:48;8.50;;;4.03;;
65996;SDS011;52765;52.258;21.052;2023-02-04T04:10:14;9.23;;;4.78;;
65996;SDS011;52765;52.258;21.052;2023-02-04T04:12:39;7.90;;;4.13;;
65996;SDS011;52765;52.258;21.052;2023-02-04T04:15:05;7.15;;;3.85;;
65996;SDS011;52765;52.258;21.052;2023-02-04T04:17:30;7.93;;;4.03;;
65996;SDS011;52765;52.258;21.052;2023-02-04T04:19:56;7.82;;;3.90;;
65996;SDS011;52765;52.258;21.052;2023-02-04T04:22:22;10.95;;;4.68;;
65996;SDS011;52765;52.258;21.052;2023-02-04T04:24:47;10.15;;;4.20;;
65996;SDS011;52765;52.258;21.052;2023-02-04T04:27:12;10.02;;;4.15;;
65996;SDS011;52765;52.258;21.052;2023-02-04T04:29:38;9.73;;;4.50;;
65996;SDS011;52765;52.258;21.052;2023-02-04T04:32:03;7.50;;;4.15;;
65996;SDS011;52765;52.258;21.052;2023-02-04T04:34:29;8.48;;;4.15;;
65996;SDS011;52765;52.258;21.052;2023-02-04T04:36:55;7.43;;;4.10;;
65996;SDS011;52765;52.258;21.052;2023-02-04T04:39:20;9.65;;;4.38;;
65996;SDS011;52765;52.258;21.052;2023-02-04T04:41:46;8.02;;;4.53;;
65996;SDS011;52765;52.258;21.052;2023-02-04T04:44:11;9.80;;;4.57;;
65996;SDS011;52765;52.258;21.052;2023-02-04T04:46:36;7.53;;;4.30;;
65996;SDS011;52765;52.258;21.052;2023-02-04T04:49:04;8.32;;;4.13;;
65996;SDS011;52765;52.258;21.052;2023-02-04T04:51:30;7.90;;;3.70;;
65996;SDS011;52765;52.258;21.052;2023-02-04T04:53:56;9.13;;;4.95;;
65996;SDS011;52765;52.258;21.052;2023-02-04T04:56:22;8.60;;;4.10;;
65996;SDS011;52765;52.258;21.052;2023-02-04T04:58:48;9.30;;;4.50;;
65996;SDS011;52765;52.258;21.052;2023-02-04T05:01:13;8.95;;;4.40;;
65996;SDS011;52765;52.258;21.052;2023-02-04T05:03:39;8.23;;;4.75;;
65996;SDS011;52765;52.258;21.052;2023-02-04T05:06:04;8.82;;;4.70;;
65996;SDS011;52765;52.258;21.052;2023-02-04T05:08:30;10.50;;;5.57;;
65996;SDS011;52765;52.258;21.052;2023-02-04T05:10:55;12.73;;;5.00;;
65996;SDS011;52765;52.258;21.052;2023-02-04T05:13:20;8.60;;;4.40;;
65996;SDS011;52765;52.258;21.052;2023-02-04T05:15:49;7.88;;;4.72;;
65996;SDS011;52765;52.258;21.052;2023-02-04T05:18:14;12.07;;;4.80;;
65996;SDS011;52765;52.258;21.052;2023-02-04T05:20:40;9.73;;;4.60;;
65996;SDS011;52765;52.258;21.052;2023-02-04T05:23:05;12.32;;;5.18;;
65996;SDS011;52765;52.258;21.052;2023-02-04T05:25:30;10.88;;;4.90;;
65996;SDS011;52765;52.258;21.052;2023-02-04T05:27:56;9.38;;;5.00;;
65996;SDS011;52765;52.258;21.052;2023-02-04T05:30:21;8.35;;;4.55;;
65996;SDS011;52765;52.258;21.052;2023-02-04T05:32:47;8.77;;;4.30;;
65996;SDS011;52765;52.258;21.052;2023-02-04T05:35:12;9.30;;;4.10;;
65996;SDS011;52765;52.258;21.052;2023-02-04T05:37:38;10.18;;;4.20;;
65996;SDS011;52765;52.258;21.052;2023-02-04T05:40:03;8.23;;;4.10;;
65996;SDS011;52765;52.258;21.052;2023-02-04T05:42:30;10.20;;;4.22;;
65996;SDS011;52765;52.258;21.052;2023-02-04T05:44:55;8.77;;;4.57;;
65996;SDS011;52765;52.258;21.052;2023-02-04T05:47:21;9.85;;;4.20;;
65996;SDS011;52765;52.258;21.052;2023-02-04T05:49:46;8.73;;;4.50;;
65996;SDS011;52765;52.258;21.052;2023-02-04T05:52:11;7.93;;;4.00;;
65996;SDS011;52765;52.258;21.052;2023-02-04T05:54:37;6.95;;;3.70;;
65996;SDS011;52765;52.258;21.052;2023-02-04T05:57:02;7.65;;;3.95;;
65996;SDS011;52765;52.258;21.052;2023-02-04T05:59:28;9.82;;;4.03;;
65996;SDS011;52765;52.258;21.052;2023-02-04T06:01:53;9.65;;;4.20;;
65996;SDS011;52765;52.258;21.052;2023-02-04T06:04:19;7.90;;;3.63;;
65996;SDS011;52765;52.258;21.052;2023-02-04T06:06:44;8.27;;;3.60;;
65996;SDS011;52765;52.258;21.052;2023-02-04T06:09:10;14.55;;;5.18;;
65996;SDS011;52765;52.258;21.052;2023-02-04T06:11:36;17.77;;;5.03;;
65996;SDS011;52765;52.258;21.052;2023-02-04T06:14:02;20.10;;;5.80;;
65996;SDS011;52765;52.258;21.052;2023-02-04T06:16:28;12.63;;;4.50;;
65996;SDS011;52765;52.258;21.052;2023-02-04T06:18:53;11.23;;;4.55;;
65996;SDS011;52765;52.258;21.052;2023-02-04T06:21:19;11.65;;;4.20;;
65996;SDS011;52765;52.258;21.052;2023-02-04T06:23:44;23.98;;;6.05;;
65996;SDS011;52765;52.258;21.052;2023-02-04T06:26:10;14.65;;;4.72;;
65996;SDS011;52765;52.258;21.052;2023-02-04T06:28:36;10.70;;;4.32;;
65996;SDS011;52765;52.258;21.052;2023-02-04T06:31:01;33.20;;;7.70;;
65996;SDS011;52765;52.258;21.052;2023-02-04T06:33:27;34.10;;;7.55;;
65996;SDS011;52765;52.258;21.052;2023-02-04T06:35:52;39.20;;;7.95;;
65996;SDS011;52765;52.258;21.052;2023-02-04T06:38:18;30.15;;;6.93;;
65996;SDS011;52765;52.258;21.052;2023-02-04T06:40:44;45.53;;;10.32;;
65996;SDS011;52765;52.258;21.052;2023-02-04T06:43:13;11.35;;;4.82;;
65996;SDS011;52765;52.258;21.052;2023-02-04T06:45:39;12.95;;;5.63;;
65996;SDS011;52765;52.258;21.052;2023-02-04T06:48:05;9.52;;;4.68;;
65996;SDS011;52765;52.258;21.052;2023-02-04T06:50:32;10.90;;;4.60;;
65996;SDS011;52765;52.258;21.052;2023-02-04T06:52:58;8.38;;;4.13;;
65996;SDS011;52765;52.258;21.052;2023-02-04T06:55:23;9.10;;;3.60;;
65996;SDS011;52765;52.258;21.052;2023-02-04T06:57:49;10.95;;;3.55;;
65996;SDS011;52765;52.258;21.052;2023-02-04T07:00:14;5.85;;;3.50;;
65996;SDS011;52765;52.258;21.052;2023-02-04T07:02:40;10.15;;;4.28;;
65996;SDS011;52765;52.258;21.052;2023-02-04T07:05:10;7.78;;;3.50;;
65996;SDS011;52765;52.258;21.052;2023-02-04T07:07:35;10.00;;;3.85;;
65996;SDS011;52765;52.258;21.052;2023-02-04T07:10:01;10.98;;;3.95;;
65996;SDS011;52765;52.258;21.052;2023-02-04T07:12:26;7.70;;;3.63;;
65996;SDS011;52765;52.258;21.052;2023-02-04T07:14:51;7.10;;;3.67;;
65996;SDS011;52765;52.258;21.052;2023-02-04T07:17:17;54.13;;;19.80;;
65996;SDS011;52765;52.258;21.052;2023-02-04T07:19:42;6.90;;;3.55;;
65996;SDS011;52765;52.258;21.052;2023-02-04T07:22:08;9.88;;;4.15;;
65996;SDS011;52765;52.258;21.052;2023-02-04T07:24:33;7.15;;;3.67;;
65996;SDS011;52765;52.258;21.052;2023-02-04T07:26:59;7.22;;;3.78;;
65996;SDS011;52765;52.258;21.052;2023-02-04T07:29:24;7.85;;;3.47;;
65996;SDS011;52765;52.258;21.052;2023-02-04T07:31:50;7.35;;;3.50;;
65996;SDS011;52765;52.258;21.052;2023-02-04T07:34:19;9.13;;;3.72;;
65996;SDS011;52765;52.258;21.052;2023-02-04T07:36:45;6.68;;;2.88;;
65996;SDS011;52765;52.258;21.052;2023-02-04T07:39:10;8.68;;;3.47;;
65996;SDS011;52765;52.258;21.052;2023-02-04T07:41:36;8.40;;;3.50;;
65996;SDS011;52765;52.258;21.052;2023-02-04T07:44:01;12.57;;;3.28;;
65996;SDS011;52765;52.258;21.052;2023-02-04T07:46:27;10.98;;;3.42;;
65996;SDS011;52765;52.258;21.052;2023-02-04T07:48:54;6.82;;;2.90;;
65996;SDS011;52765;52.258;21.052;2023-02-04T07:51:20;15.70;;;4.55;;
65996;SDS011;52765;52.258;21.052;2023-02-04T07:53:45;16.25;;;4.60;;
65996;SDS011;52765;52.258;21.052;2023-02-04T07:56:11;7.05;;;2.95;;
65996;SDS011;52765;52.258;21.052;2023-02-04T07:58:36;10.70;;;3.40;;
65996;SDS011;52765;52.258;21.052;2023-02-04T08:01:02;10.95;;;3.60;;
65996;SDS011;52765;52.258;21.052;2023-02-04T08:03:27;31.55;;;5.70;;
65996;SDS011;52765;52.258;21.052;2023-02-04T08:05:53;21.15;;;5.10;;
65996;SDS011;52765;52.258;21.052;2023-02-04T08:08:18;8.00;;;3.15;;
65996;SDS011;52765;52.258;21.052;2023-02-04T08:10:44;7.15;;;2.75;;
65996;SDS011;52765;52.258;21.052;2023-02-04T08:13:10;5.82;;;2.33;;
65996;SDS011;52765;52.258;21.052;2023-02-04T08:15:35;5.75;;;2.13;;
65996;SDS011;52765;52.258;21.052;2023-02-04T08:18:01;5.88;;;2.65;;
65996;SDS011;52765;52.258;21.052;2023-02-04T08:20:26;4.97;;;2.47;;
65996;SDS011;52765;52.258;21.052;2023-02-04T08:22:52;30.52;;;6.00;;
65996;SDS011;52765;52.258;21.052;2023-02-04T08:25:17;10.52;;;2.63;;
65996;SDS011;52765;52.258;21.052;2023-02-04T08:27:43;4.90;;;2.20;;
65996;SDS011;52765;52.258;21.052;2023-02-04T08:30:08;7.13;;;2.38;;
65996;SDS011;52765;52.258;21.052;2023-02-04T08:32:34;4.40;;;2.40;;
65996;SDS011;52765;52.258;21.052;2023-02-04T08:35:00;7.97;;;2.55;;
65996;SDS011;52765;52.258;21.052;2023-02-04T08:37:26;5.53;;;2.22;;
65996;SDS011;52765;52.258;21.052;2023-02-04T08:39:53;5.15;;;2.10;;
65996;SDS011;52765;52.258;21.052;2023-02-04T08:42:19;6.18;;;2.40;;
65996;SDS011;52765;52.258;21.052;2023-02-04T08:44:45;6.88;;;2.45;;
65996;SDS011;52765;52.258;21.052;2023-02-04T08:47:11;7.70;;;2.47;;
65996;SDS011;52765;52.258;21.052;2023-02-04T08:49:36;7.55;;;2.75;;
65996;SDS011;52765;52.258;21.052;2023-02-04T08:52:02;5.13;;;2.20;;
65996;SDS011;52765;52.258;21.052;2023-02-04T08:54:30;13.13;;;2.85;;
65996;SDS011;52765;52.258;21.052;2023-02-04T08:56:56;6.13;;;2.35;;
65996;SDS011;52765;52.258;21.052;2023-02-04T08:59:22;4.00;;;2.15;;
65996;SDS011;52765;52.258;21.052;2023-02-04T09:01:48;5.28;;;1.70;;
65996;SDS011;52765;52.258;21.052;2023-02-04T09:04:16;5.88;;;1.77;;
65996;SDS011;52765;52.258;21.052;2023-02-04T09:06:46;5.22;;;1.52;;
65996;SDS011;52765;52.258;21.052;2023-02-04T09:09:12;3.15;;;1.60;;
65996;SDS011;52765;52.258;21.052;2023-02-04T09:11:37;4.68;;;1.90;;
65996;SDS011;52765;52.258;21.052;2023-02-04T09:14:03;5.65;;;2.13;;
65996;SDS011;52765;52.258;21.052;2023-02-04T09:16:28;4.82;;;2.20;;
65996;SDS011;52765;52.258;21.052;2023-02-04T09:18:54;6.22;;;2.03;;
65996;SDS011;52765;52.258;21.052;2023-02-04T09:21:20;6.25;;;1.70;;
65996;SDS011;52765;52.258;21.052;2023-02-04T09:23:46;3.40;;;1.80;;
65996;SDS011;52765;52.258;21.052;2023-02-04T09:26:12;4.30;;;1.80;;
65996;SDS011;52765;52.258;21.052;2023-02-04T09:28:40;5.53;;;1.90;;
65996;SDS011;52765;52.258;21.052;2023-02-04T09:31:05;2.38;;;1.70;;
65996;SDS011;52765;52.258;21.052;2023-02-04T09:33:32;4.88;;;2.00;;
65996;SDS011;52765;52.258;21.052;2023-02-04T09:35:58;2.38;;;1.30;;
65996;SDS011;52765;52.258;21.052;2023-02-04T09:38:26;3.13;;;1.17;;
65996;SDS011;52765;52.258;21.052;2023-02-04T09:40:52;4.55;;;1.30;;
65996;SDS011;52765;52.258;21.052;2023-02-04T09:43:25;2.33;;;1.38;;
65996;SDS011;52765;52.258;21.052;2023-02-04T09:46:03;3.65;;;1.70;;
65996;SDS011;52765;52.258;21.052;2023-02-04T09:48:32;3.83;;;1.48;;
65996;SDS011;52765;52.258;21.052;2023-02-04T09:51:02;3.35;;;1.73;;
65996;SDS011;52765;52.258;21.052;2023-02-04T09:53:30;4.70;;;2.20;;
65996;SDS011;52765;52.258;21.052;2023-02-04T09:55:56;3.42;;;1.63;;
65996;SDS011;52765;52.258;21.052;2023-02-04T09:58:22;2.25;;;1.42;;
65996;SDS011;52765;52.258;21.052;2023-02-04T10:03:34;4.43;;;2.08;;
65996;SDS011;52765;52.258;21.052;2023-02-04T10:06:00;4.95;;;1.92;;
65996;SDS011;52765;52.258;21.052;2023-02-04T10:08:27;2.78;;;1.60;;
65996;SDS011;52765;52.258;21.052;2023-02-04T10:10:57;2.75;;;1.60;;
65996;SDS011;52765;52.258;21.052;2023-02-04T10:13:23;9.95;;;2.17;;
65996;SDS011;52765;52.258;21.052;2023-02-04T10:15:58;2.70;;;1.75;;
65996;SDS011;52765;52.258;21.052;2023-02-04T10:18:27;4.55;;;2.33;;
65996;SDS011;52765;52.258;21.052;2023-02-04T10:21:07;4.32;;;1.92;;
65996;SDS011;52765;52.258;21.052;2023-02-04T10:23:36;3.15;;;1.85;;
65996;SDS011;52765;52.258;21.052;2023-02-04T10:26:02;3.15;;;1.60;;
65996;SDS011;52765;52.258;21.052;2023-02-04T10:28:31;6.70;;;2.20;;
65996;SDS011;52765;52.258;21.052;2023-02-04T10:30:58;4.05;;;2.00;;
65996;SDS011;52765;52.258;21.052;2023-02-04T10:33:23;5.50;;;2.15;;
65996;SDS011;52765;52.258;21.052;2023-02-04T10:35:50;3.97;;;1.92;;
65996;SDS011;52765;52.258;21.052;2023-02-04T10:38:18;7.60;;;2.13;;
65996;SDS011;52765;52.258;21.052;2023-02-04T10:40:44;5.15;;;2.70;;
65996;SDS011;52765;52.258;21.052;2023-02-04T10:43:20;3.90;;;2.17;;
65996;SDS011;52765;52.258;21.052;2023-02-04T10:48:23;5.78;;;2.45;;
65996;SDS011;52765;52.258;21.052;2023-02-04T10:50:50;6.80;;;2.28;;
65996;SDS011;52765;52.258;21.052;2023-02-04T10:53:17;7.65;;;2.85;;
65996;SDS011;52765;52.258;21.052;2023-02-04T10:56:16;6.88;;;2.47;;
65996;SDS011;52765;52.258;21.052;2023-02-04T10:58:44;8.50;;;2.10;;
65996;SDS011;52765;52.258;21.052;2023-02-04T11:01:10;7.07;;;2.47;;
65996;SDS011;52765;52.258;21.052;2023-02-04T11:03:36;9.05;;;2.70;;
65996;SDS011;52765;52.258;21.052;2023-02-04T11:06:07;4.30;;;2.03;;
65996;SDS011;52765;52.258;21.052;2023-02-04T11:08:36;5.18;;;2.15;;
65996;SDS011;52765;52.258;21.052;2023-02-04T11:11:03;4.03;;;1.95;;
65996;SDS011;52765;52.258;21.052;2023-02-04T11:18:50;5.03;;;1.88;;
65996;SDS011;52765;52.258;21.052;2023-02-04T11:21:40;3.33;;;1.45;;
65996;SDS011;52765;52.258;21.052;2023-02-04T11:26:39;6.20;;;2.10;;
65996;SDS011;52765;52.258;21.052;2023-02-04T11:34:11;3.67;;;2.03;;
65996;SDS011;52765;52.258;21.052;2023-02-04T11:42:05;3.30;;;1.70;;
65996;SDS011;52765;52.258;21.052;2023-02-04T11:44:59;4.50;;;2.17;;
65996;SDS011;52765;52.258;21.052;2023-02-04T11:47:26;4.55;;;1.88;;
65996;SDS011;52765;52.258;21.052;2023-02-04T11:49:58;6.15;;;2.03;;
65996;SDS011;52765;52.258;21.052;2023-02-04T11:52:27;6.15;;;2.30;;
65996;SDS011;52765;52.258;21.052;2023-02-04T11:54:53;7.68;;;2.35;;
65996;SDS011;52765;52.258;21.052;2023-02-04T11:57:22;5.53;;;2.30;;
65996;SDS011;52765;52.258;21.052;2023-02-04T11:59:48;4.03;;;1.90;;
65996;SDS011;52765;52.258;21.052;2023-02-04T12:02:15;5.85;;;1.95;;
65996;SDS011;52765;52.258;21.052;2023-02-04T12:04:50;5.90;;;2.38;;
65996;SDS011;52765;52.258;21.052;2023-02-04T12:07:34;4.30;;;2.47;;
65996;SDS011;52765;52.258;21.052;2023-02-04T12:12:57;9.85;;;3.45;;
65996;SDS011;52765;52.258;21.052;2023-02-04T12:15:29;5.15;;;2.53;;
65996;SDS011;52765;52.258;21.052;2023-02-04T12:18:02;5.28;;;3.00;;
65996;SDS011;52765;52.258;21.052;2023-02-04T12:20:32;7.07;;;3.00;;
65996;SDS011;52765;52.258;21.052;2023-02-04T12:22:58;9.57;;;3.53;;
65996;SDS011;52765;52.258;21.052;2023-02-04T12:25:24;8.02;;;2.70;;
65996;SDS011;52765;52.258;21.052;2023-02-04T12:27:50;7.60;;;2.58;;
65996;SDS011;52765;52.258;21.052;2023-02-04T12:30:18;5.97;;;2.85;;
65996;SDS011;52765;52.258;21.052;2023-02-04T12:32:44;7.45;;;2.53;;
65996;SDS011;52765;52.258;21.052;2023-02-04T12:35:10;4.82;;;2.47;;
65996;SDS011;52765;52.258;21.052;2023-02-04T12:37:36;5.00;;;2.47;;
65996;SDS011;52765;52.258;21.052;2023-02-04T12:40:01;5.45;;;2.15;;
65996;SDS011;52765;52.258;21.052;2023-02-04T12:42:27;5.05;;;2.40;;
65996;SDS011;52765;52.258;21.052;2023-02-04T12:44:52;5.97;;;2.75;;
65996;SDS011;52765;52.258;21.052;2023-02-04T12:47:18;9.32;;;3.28;;
65996;SDS011;52765;52.258;21.052;2023-02-04T12:49:43;7.45;;;3.00;;
65996;SDS011;52765;52.258;21.052;2023-02-04T12:52:10;4.72;;;2.40;;
65996;SDS011;52765;52.258;21.052;2023-02-04T12:54:36;5.20;;;2.47;;
65996;SDS011;52765;52.258;21.052;2023-02-04T12:57:01;6.45;;;2.42;;
65996;SDS011;52765;52.258;21.052;2023-02-04T12:59:27;4.45;;;2.20;;
65996;SDS011;52765;52.258;21.052;2023-02-04T13:01:55;3.67;;;1.73;;
65996;SDS011;52765;52.258;21.052;2023-02-04T13:04:23;4.55;;;2.17;;
65996;SDS011;52765;52.258;21.052;2023-02-04T13:06:51;45.30;;;16.83;;
65996;SDS011;52765;52.258;21.052;2023-02-04T13:09:16;51.70;;;23.33;;
65996;SDS011;52765;52.258;21.052;2023-02-04T13:11:42;4.70;;;2.25;;
65996;SDS011;52765;52.258;21.052;2023-02-04T13:14:07;3.65;;;2.03;;
65996;SDS011;52765;52.258;21.052;2023-02-04T13:16:33;6.28;;;2.58;;
65996;SDS011;52765;52.258;21.052;2023-02-04T13:18:58;4.72;;;2.20;;
65996;SDS011;52765;52.258;21.052;2023-02-04T13:21:23;3.95;;;1.67;;
65996;SDS011;52765;52.258;21.052;2023-02-04T13:23:49;3.95;;;2.33;;
65996;SDS011;52765;52.258;21.052;2023-02-04T13:26:15;4.13;;;1.52;;
65996;SDS011;52765;52.258;21.052;2023-02-04T13:28:40;2.97;;;1.58;;
65996;SDS011;52765;52.258;21.052;2023-02-04T13:31:06;3.40;;;1.55;;
65996;SDS011;52765;52.258;21.052;2023-02-04T13:33:31;2.80;;;1.65;;
65996;SDS011;52765;52.258;21.052;2023-02-04T13:35:57;3.97;;;1.42;;
65996;SDS011;52765;52.258;21.052;2023-02-04T13:38:22;3.25;;;1.30;;
65996;SDS011;52765;52.258;21.052;2023-02-04T13:40:49;3.17;;;1.45;;
65996;SDS011;52765;52.258;21.052;2023-02-04T13:43:14;4.53;;;1.73;;
65996;SDS011;52765;52.258;21.052;2023-02-04T13:45:40;4.88;;;1.83;;
65996;SDS011;52765;52.258;21.052;2023-02-04T13:48:11;4.03;;;1.88;;
65996;SDS011;52765;52.258;21.052;2023-02-04T13:50:36;3.63;;;1.35;;
65996;SDS011;52765;52.258;21.052;2023-02-04T13:53:02;2.67;;;1.40;;
65996;SDS011;52765;52.258;21.052;2023-02-04T13:55:27;3.05;;;1.63;;
65996;SDS011;52765;52.258;21.052;2023-02-04T13:57:53;3.92;;;2.00;;
65996;SDS011;52765;52.258;21.052;2023-02-04T14:00:19;2.38;;;1.73;;
65996;SDS011;52765;52.258;21.052;2023-02-04T14:02:44;3.58;;;1.25;;
65996;SDS011;52765;52.258;21.052;2023-02-04T14:05:10;1.77;;;1.20;;
65996;SDS011;52765;52.258;21.052;2023-02-04T14:07:35;4.00;;;1.40;;
65996;SDS011;52765;52.258;21.052;2023-02-04T14:10:01;4.18;;;1.30;;
65996;SDS011;52765;52.258;21.052;2023-02-04T14:12:26;2.58;;;1.55;;
65996;SDS011;52765;52.258;21.052;2023-02-04T14:14:52;4.45;;;1.70;;
65996;SDS011;52765;52.258;21.052;2023-02-04T14:17:17;4.72;;;1.80;;
65996;SDS011;52765;52.258;21.052;2023-02-04T14:19:45;3.15;;;1.50;;
65996;SDS011;52765;52.258;21.052;2023-02-04T14:22:11;3.28;;;1.50;;
65996;SDS011;52765;52.258;21.052;2023-02-04T14:24:38;3.35;;;1.40;;
65996;SDS011;52765;52.258;21.052;2023-02-04T14:27:06;2.85;;;1.35;;
65996;SDS011;52765;52.258;21.052;2023-02-04T14:29:33;4.30;;;1.65;;
65996;SDS011;52765;52.258;21.052;2023-02-04T14:31:59;4.85;;;1.40;;
65996;SDS011;52765;52.258;21.052;2023-02-04T14:34:24;3.13;;;1.50;;
65996;SDS011;52765;52.258;21.052;2023-02-04T14:36:53;3.67;;;1.70;;
65996;SDS011;52765;52.258;21.052;2023-02-04T14:39:18;4.03;;;2.10;;
65996;SDS011;52765;52.258;21.052;2023-02-04T14:41:44;4.60;;;1.85;;
65996;SDS011;52765;52.258;21.052;2023-02-04T14:44:10;3.33;;;1.60;;
65996;SDS011;52765;52.258;21.052;2023-02-04T14:46:35;4.07;;;1.77;;
65996;SDS011;52765;52.258;21.052;2023-02-04T14:49:01;4.05;;;2.17;;
65996;SDS011;52765;52.258;21.052;2023-02-04T14:51:26;4.28;;;2.10;;
65996;SDS011;52765;52.258;21.052;2023-02-04T14:53:52;6.07;;;2.15;;
65996;SDS011;52765;52.258;21.052;2023-02-04T14:56:17;18.92;;;6.95;;
65996;SDS011;52765;52.258;21.052;2023-02-04T14:58:43;5.35;;;2.55;;